sensor_id;sensor_type;location;lat;lon;timestamp;P1;durP1;ratioP1;P2;durP2;ratioP2
77362;SDS011;66428;47.322;9.432;2024-02-21T00:00:09;4.15;;;2.97;;
77362;SDS011;66428;47.322;9.432;2024-02-21T00:02:38;2.20;;;1.55;;
77362;SDS011;66428;47.322;9.432;2024-02-21T00:05:08;1.80;;;1.05;;
77362;SDS011;66428;47.322;9.432;2024-02-21T00:07:38;1.80;;;1.25;;
77362;SDS011;66428;47.322;9.432;2024-02-21T00:10:09;2.90;;;1.90;;
77362;SDS011;66428;47.322;9.432;2024-02-21T00:12:39;1.88;;;1.20;;
77362;SDS011;66428;47.322;9.432;2024-02-21T00:15:11;1.80;;;0.90;;
77362;SDS011;66428;47.322;9.432;2024-02-21T00:17:41;1.45;;;1.00;;
77362;SDS011;66428;47.322;9.432;2024-02-21T00:20:11;3.28;;;1.00;;
77362;SDS011;66428;47.322;9.432;2024-02-21T00:22:38;1.80;;;0.80;;
77362;SDS011;66428;47.322;9.432;2024-02-21T00:25:06;1.13;;;0.68;;
77362;SDS011;66428;47.322;9.432;2024-02-21T00:27:35;2.90;;;0.90;;
77362;SDS011;66428;47.322;9.432;2024-02-21T00:30:02;1.48;;;0.73;;
77362;SDS011;66428;47.322;9.432;2024-02-21T00:32:34;1.63;;;0.52;;
77362;SDS011;66428;47.322;9.432;2024-02-21T00:35:02;0.52;;;0.50;;
77362;SDS011;66428;47.322;9.432;2024-02-21T00:37:30;0.90;;;0.65;;
77362;SDS011;66428;47.322;9.432;2024-02-21T00:39:58;0.95;;;0.70;;
77362;SDS011;66428;47.322;9.432;2024-02-21T00:42:28;1.10;;;0.68;;
77362;SDS011;66428;47.322;9.432;2024-02-21T00:44:58;0.82;;;0.45;;
77362;SDS011;66428;47.322;9.432;2024-02-21T00:47:26;3.22;;;1.30;;
77362;SDS011;66428;47.322;9.432;2024-02-21T00:49:58;2.17;;;1.23;;
77362;SDS011;66428;47.322;9.432;2024-02-21T00:52:26;2.50;;;0.73;;
77362;SDS011;66428;47.322;9.432;2024-02-21T00:54:53;1.33;;;0.93;;
77362;SDS011;66428;47.322;9.432;2024-02-21T00:57:21;1.35;;;0.82;;
77362;SDS011;66428;47.322;9.432;2024-02-21T00:59:49;1.40;;;0.73;;
77362;SDS011;66428;47.322;9.432;2024-02-21T01:02:19;1.40;;;0.80;;
77362;SDS011;66428;47.322;9.432;2024-02-21T01:04:47;0.82;;;0.63;;
77362;SDS011;66428;47.322;9.432;2024-02-21T01:07:17;1.65;;;0.63;;
77362;SDS011;66428;47.322;9.432;2024-02-21T01:09:47;1.17;;;0.70;;
77362;SDS011;66428;47.322;9.432;2024-02-21T01:12:14;1.13;;;0.60;;
77362;SDS011;66428;47.322;9.432;2024-02-21T01:14:44;0.70;;;0.55;;
77362;SDS011;66428;47.322;9.432;2024-02-21T01:17:13;0.63;;;0.47;;
77362;SDS011;66428;47.322;9.432;2024-02-21T01:19:43;0.98;;;0.60;;
77362;SDS011;66428;47.322;9.432;2024-02-21T01:22:11;1.35;;;0.57;;
77362;SDS011;66428;47.322;9.432;2024-02-21T01:24:40;0.98;;;0.70;;
77362;SDS011;66428;47.322;9.432;2024-02-21T01:27:10;1.40;;;0.73;;
77362;SDS011;66428;47.322;9.432;2024-02-21T01:29:38;1.98;;;0.68;;
77362;SDS011;66428;47.322;9.432;2024-02-21T01:32:08;0.93;;;0.45;;
77362;SDS011;66428;47.322;9.432;2024-02-21T01:34:36;0.45;;;0.40;;
77362;SDS011;66428;47.322;9.432;2024-02-21T01:37:04;1.20;;;0.68;;
77362;SDS011;66428;47.322;9.432;2024-02-21T01:39:36;1.33;;;0.68;;
77362;SDS011;66428;47.322;9.432;2024-02-21T01:42:05;1.50;;;0.98;;
77362;SDS011;66428;47.322;9.432;2024-02-21T01:44:32;1.45;;;0.88;;
77362;SDS011;66428;47.322;9.432;2024-02-21T01:47:00;1.52;;;0.63;;
77362;SDS011;66428;47.322;9.432;2024-02-21T01:49:30;0.93;;;0.70;;
77362;SDS011;66428;47.322;9.432;2024-02-21T01:51:58;1.00;;;0.60;;
77362;SDS011;66428;47.322;9.432;2024-02-21T01:54:28;2.10;;;0.90;;
77362;SDS011;66428;47.322;9.432;2024-02-21T01:56:56;1.08;;;0.60;;
77362;SDS011;66428;47.322;9.432;2024-02-21T01:59:25;0.75;;;0.68;;
77362;SDS011;66428;47.322;9.432;2024-02-21T02:01:53;1.00;;;0.52;;
77362;SDS011;66428;47.322;9.432;2024-02-21T02:04:23;1.00;;;0.60;;
77362;SDS011;66428;47.322;9.432;2024-02-21T02:06:53;1.27;;;0.88;;
77362;SDS011;66428;47.322;9.432;2024-02-21T02:09:22;0.93;;;0.65;;
77362;SDS011;66428;47.322;9.432;2024-02-21T02:11:50;1.02;;;0.63;;
77362;SDS011;66428;47.322;9.432;2024-02-21T02:14:18;0.90;;;0.52;;
77362;SDS011;66428;47.322;9.432;2024-02-21T02:16:47;1.00;;;0.60;;
77362;SDS011;66428;47.322;9.432;2024-02-21T02:19:17;0.70;;;0.52;;
77362;SDS011;66428;47.322;9.432;2024-02-21T02:21:49;0.93;;;0.50;;
77362;SDS011;66428;47.322;9.432;2024-02-21T02:24:24;1.20;;;0.52;;
77362;SDS011;66428;47.322;9.432;2024-02-21T02:26:52;0.75;;;0.60;;
77362;SDS011;66428;47.322;9.432;2024-02-21T02:29:21;1.30;;;0.70;;
77362;SDS011;66428;47.322;9.432;2024-02-21T02:31:52;1.65;;;0.57;;
77362;SDS011;66428;47.322;9.432;2024-02-21T02:34:19;0.90;;;0.60;;
77362;SDS011;66428;47.322;9.432;2024-02-21T02:36:47;1.77;;;0.80;;
77362;SDS011;66428;47.322;9.432;2024-02-21T02:39:15;0.90;;;0.63;;
77362;SDS011;66428;47.322;9.432;2024-02-21T02:41:45;1.02;;;0.75;;
77362;SDS011;66428;47.322;9.432;2024-02-21T02:44:15;0.75;;;0.50;;
77362;SDS011;66428;47.322;9.432;2024-02-21T02:46:42;0.60;;;0.50;;
77362;SDS011;66428;47.322;9.432;2024-02-21T02:49:10;1.23;;;0.93;;
77362;SDS011;66428;47.322;9.432;2024-02-21T02:51:40;1.35;;;0.70;;
77362;SDS011;66428;47.322;9.432;2024-02-21T02:54:10;0.43;;;0.43;;
77362;SDS011;66428;47.322;9.432;2024-02-21T02:56:40;0.57;;;0.43;;
77362;SDS011;66428;47.322;9.432;2024-02-21T02:59:12;0.80;;;0.43;;
77362;SDS011;66428;47.322;9.432;2024-02-21T03:01:39;0.63;;;0.60;;
77362;SDS011;66428;47.322;9.432;2024-02-21T03:04:07;0.98;;;0.52;;
77362;SDS011;66428;47.322;9.432;2024-02-21T03:06:35;0.93;;;0.70;;
77362;SDS011;66428;47.322;9.432;2024-02-21T03:09:03;0.70;;;0.50;;
77362;SDS011;66428;47.322;9.432;2024-02-21T03:11:42;0.55;;;0.50;;
77362;SDS011;66428;47.322;9.432;2024-02-21T03:14:12;1.00;;;0.57;;
77362;SDS011;66428;47.322;9.432;2024-02-21T03:16:40;0.50;;;0.45;;
77362;SDS011;66428;47.322;9.432;2024-02-21T03:19:10;0.77;;;0.57;;
77362;SDS011;66428;47.322;9.432;2024-02-21T03:21:41;0.55;;;0.55;;
77362;SDS011;66428;47.322;9.432;2024-02-21T03:24:08;0.80;;;0.80;;
77362;SDS011;66428;47.322;9.432;2024-02-21T03:26:36;2.28;;;0.73;;
77362;SDS011;66428;47.322;9.432;2024-02-21T03:29:04;0.88;;;0.63;;
77362;SDS011;66428;47.322;9.432;2024-02-21T03:31:35;0.50;;;0.50;;
77362;SDS011;66428;47.322;9.432;2024-02-21T03:34:05;3.40;;;0.85;;
77362;SDS011;66428;47.322;9.432;2024-02-21T03:36:33;1.63;;;0.75;;
77362;SDS011;66428;47.322;9.432;2024-02-21T03:39:01;1.77;;;0.90;;
77362;SDS011;66428;47.322;9.432;2024-02-21T03:41:31;0.80;;;0.63;;
77362;SDS011;66428;47.322;9.432;2024-02-21T03:44:01;0.98;;;0.57;;
77362;SDS011;66428;47.322;9.432;2024-02-21T03:46:28;1.20;;;0.75;;
77362;SDS011;66428;47.322;9.432;2024-02-21T03:48:57;0.95;;;0.60;;
77362;SDS011;66428;47.322;9.432;2024-02-21T03:51:25;0.60;;;0.52;;
77362;SDS011;66428;47.322;9.432;2024-02-21T03:53:55;1.48;;;0.60;;
77362;SDS011;66428;47.322;9.432;2024-02-21T03:56:25;1.35;;;0.57;;
77362;SDS011;66428;47.322;9.432;2024-02-21T03:58:52;1.80;;;0.88;;
77362;SDS011;66428;47.322;9.432;2024-02-21T04:01:20;0.98;;;0.80;;
77362;SDS011;66428;47.322;9.432;2024-02-21T04:03:48;1.65;;;0.63;;
77362;SDS011;66428;47.322;9.432;2024-02-21T04:06:17;0.80;;;0.65;;
77362;SDS011;66428;47.322;9.432;2024-02-21T04:08:45;1.90;;;0.93;;
77362;SDS011;66428;47.322;9.432;2024-02-21T04:11:13;1.10;;;0.68;;
77362;SDS011;66428;47.322;9.432;2024-02-21T04:13:41;1.85;;;0.63;;
77362;SDS011;66428;47.322;9.432;2024-02-21T04:16:08;1.38;;;0.47;;
77362;SDS011;66428;47.322;9.432;2024-02-21T04:18:36;0.77;;;0.63;;
77362;SDS011;66428;47.322;9.432;2024-02-21T04:21:07;0.68;;;0.40;;
77362;SDS011;66428;47.322;9.432;2024-02-21T04:23:36;0.68;;;0.52;;
77362;SDS011;66428;47.322;9.432;2024-02-21T04:26:07;0.75;;;0.65;;
77362;SDS011;66428;47.322;9.432;2024-02-21T04:28:34;0.98;;;0.57;;
77362;SDS011;66428;47.322;9.432;2024-02-21T04:31:05;1.73;;;0.80;;
77362;SDS011;66428;47.322;9.432;2024-02-21T04:33:33;1.92;;;1.17;;
77362;SDS011;66428;47.322;9.432;2024-02-21T04:36:01;1.60;;;1.10;;
77362;SDS011;66428;47.322;9.432;2024-02-21T04:38:31;1.65;;;0.82;;
77362;SDS011;66428;47.322;9.432;2024-02-21T04:41:02;1.83;;;1.33;;
77362;SDS011;66428;47.322;9.432;2024-02-21T04:43:30;2.38;;;1.52;;
77362;SDS011;66428;47.322;9.432;2024-02-21T04:45:57;3.13;;;1.27;;
77362;SDS011;66428;47.322;9.432;2024-02-21T04:48:25;2.22;;;1.27;;
77362;SDS011;66428;47.322;9.432;2024-02-21T04:50:55;1.90;;;1.20;;
77362;SDS011;66428;47.322;9.432;2024-02-21T04:53:25;2.00;;;0.95;;
77362;SDS011;66428;47.322;9.432;2024-02-21T04:55:55;2.47;;;1.13;;
77362;SDS011;66428;47.322;9.432;2024-02-21T04:58:24;2.30;;;1.00;;
77362;SDS011;66428;47.322;9.432;2024-02-21T05:00:52;2.03;;;1.10;;
77362;SDS011;66428;47.322;9.432;2024-02-21T05:03:23;1.52;;;0.88;;
77362;SDS011;66428;47.322;9.432;2024-02-21T05:05:53;2.28;;;0.80;;
77362;SDS011;66428;47.322;9.432;2024-02-21T05:08:21;2.15;;;1.05;;
77362;SDS011;66428;47.322;9.432;2024-02-21T05:10:51;2.03;;;1.00;;
77362;SDS011;66428;47.322;9.432;2024-02-21T05:13:19;1.45;;;0.82;;
77362;SDS011;66428;47.322;9.432;2024-02-21T05:15:48;1.23;;;0.55;;
77362;SDS011;66428;47.322;9.432;2024-02-21T05:18:16;1.33;;;0.80;;
77362;SDS011;66428;47.322;9.432;2024-02-21T05:20:44;0.85;;;0.45;;
77362;SDS011;66428;47.322;9.432;2024-02-21T05:23:12;0.57;;;0.40;;
77362;SDS011;66428;47.322;9.432;2024-02-21T05:25:40;1.27;;;0.65;;
77362;SDS011;66428;47.322;9.432;2024-02-21T05:28:07;1.10;;;0.65;;
77362;SDS011;66428;47.322;9.432;2024-02-21T05:30:35;1.88;;;0.73;;
77362;SDS011;66428;47.322;9.432;2024-02-21T05:33:05;3.00;;;1.90;;
77362;SDS011;66428;47.322;9.432;2024-02-21T05:35:34;4.55;;;2.03;;
77362;SDS011;66428;47.322;9.432;2024-02-21T05:38:02;2.97;;;1.52;;
77362;SDS011;66428;47.322;9.432;2024-02-21T05:40:33;3.33;;;1.80;;
77362;SDS011;66428;47.322;9.432;2024-02-21T05:43:03;3.00;;;1.95;;
77362;SDS011;66428;47.322;9.432;2024-02-21T05:45:31;2.30;;;1.27;;
77362;SDS011;66428;47.322;9.432;2024-02-21T05:47:59;3.25;;;1.33;;
77362;SDS011;66428;47.322;9.432;2024-02-21T05:50:28;2.35;;;1.27;;
77362;SDS011;66428;47.322;9.432;2024-02-21T05:52:56;2.88;;;1.77;;
77362;SDS011;66428;47.322;9.432;2024-02-21T05:55:24;2.88;;;1.90;;
77362;SDS011;66428;47.322;9.432;2024-02-21T05:57:53;3.08;;;1.90;;
77362;SDS011;66428;47.322;9.432;2024-02-21T06:00:20;2.08;;;1.25;;
77362;SDS011;66428;47.322;9.432;2024-02-21T06:02:48;3.00;;;1.33;;
77362;SDS011;66428;47.322;9.432;2024-02-21T06:05:16;3.28;;;1.40;;
77362;SDS011;66428;47.322;9.432;2024-02-21T06:07:45;3.03;;;1.33;;
77362;SDS011;66428;47.322;9.432;2024-02-21T06:10:13;4.65;;;1.63;;
77362;SDS011;66428;47.322;9.432;2024-02-21T06:12:41;5.18;;;1.77;;
77362;SDS011;66428;47.322;9.432;2024-02-21T06:15:09;7.85;;;2.55;;
77362;SDS011;66428;47.322;9.432;2024-02-21T06:17:39;8.13;;;2.90;;
77362;SDS011;66428;47.322;9.432;2024-02-21T06:20:07;9.80;;;3.08;;
77362;SDS011;66428;47.322;9.432;2024-02-21T06:22:38;7.20;;;3.63;;
77362;SDS011;66428;47.322;9.432;2024-02-21T06:25:07;12.07;;;4.50;;
77362;SDS011;66428;47.322;9.432;2024-02-21T06:27:35;13.18;;;4.95;;
77362;SDS011;66428;47.322;9.432;2024-02-21T06:30:03;12.20;;;5.00;;
77362;SDS011;66428;47.322;9.432;2024-02-21T06:32:31;11.63;;;3.90;;
77362;SDS011;66428;47.322;9.432;2024-02-21T06:34:59;9.23;;;3.55;;
77362;SDS011;66428;47.322;9.432;2024-02-21T06:37:28;6.82;;;3.58;;
77362;SDS011;66428;47.322;9.432;2024-02-21T06:39:59;8.45;;;3.15;;
77362;SDS011;66428;47.322;9.432;2024-02-21T06:42:28;7.13;;;2.83;;
77362;SDS011;66428;47.322;9.432;2024-02-21T06:44:56;5.47;;;2.35;;
77362;SDS011;66428;47.322;9.432;2024-02-21T06:47:24;3.70;;;2.22;;
77362;SDS011;66428;47.322;9.432;2024-02-21T06:49:51;5.75;;;2.70;;
77362;SDS011;66428;47.322;9.432;2024-02-21T06:52:21;6.47;;;3.08;;
77362;SDS011;66428;47.322;9.432;2024-02-21T06:54:53;4.10;;;2.92;;
77362;SDS011;66428;47.322;9.432;2024-02-21T06:57:21;4.38;;;2.17;;
77362;SDS011;66428;47.322;9.432;2024-02-21T06:59:50;2.85;;;1.55;;
77362;SDS011;66428;47.322;9.432;2024-02-21T07:02:20;3.83;;;1.77;;
77362;SDS011;66428;47.322;9.432;2024-02-21T07:04:50;3.40;;;1.80;;
77362;SDS011;66428;47.322;9.432;2024-02-21T07:07:18;4.10;;;2.35;;
77362;SDS011;66428;47.322;9.432;2024-02-21T07:09:46;3.80;;;2.00;;
77362;SDS011;66428;47.322;9.432;2024-02-21T07:12:15;4.72;;;1.83;;
77362;SDS011;66428;47.322;9.432;2024-02-21T07:14:44;2.60;;;1.17;;
77362;SDS011;66428;47.322;9.432;2024-02-21T07:17:15;3.10;;;1.90;;
77362;SDS011;66428;47.322;9.432;2024-02-21T07:19:45;4.55;;;2.50;;
77362;SDS011;66428;47.322;9.432;2024-02-21T07:22:13;14.88;;;8.35;;
77362;SDS011;66428;47.322;9.432;2024-02-21T07:24:41;9.52;;;4.95;;
77362;SDS011;66428;47.322;9.432;2024-02-21T07:27:08;10.57;;;5.13;;
77362;SDS011;66428;47.322;9.432;2024-02-21T07:29:36;11.43;;;6.03;;
77362;SDS011;66428;47.322;9.432;2024-02-21T07:32:04;7.60;;;4.53;;
77362;SDS011;66428;47.322;9.432;2024-02-21T07:34:33;7.43;;;4.03;;
77362;SDS011;66428;47.322;9.432;2024-02-21T07:37:01;5.22;;;2.67;;
77362;SDS011;66428;47.322;9.432;2024-02-21T07:39:29;2.35;;;1.48;;
77362;SDS011;66428;47.322;9.432;2024-02-21T07:41:56;3.95;;;1.73;;
77362;SDS011;66428;47.322;9.432;2024-02-21T07:44:26;4.70;;;2.15;;
77362;SDS011;66428;47.322;9.432;2024-02-21T07:46:57;5.63;;;3.03;;
77362;SDS011;66428;47.322;9.432;2024-02-21T07:49:25;9.98;;;3.15;;
77362;SDS011;66428;47.322;9.432;2024-02-21T07:51:54;6.05;;;3.22;;
77362;SDS011;66428;47.322;9.432;2024-02-21T07:54:24;6.75;;;3.10;;
77362;SDS011;66428;47.322;9.432;2024-02-21T07:56:54;4.38;;;2.95;;
77362;SDS011;66428;47.322;9.432;2024-02-21T07:59:22;5.57;;;2.90;;
77362;SDS011;66428;47.322;9.432;2024-02-21T08:01:55;10.10;;;3.63;;
77362;SDS011;66428;47.322;9.432;2024-02-21T08:04:23;5.97;;;3.50;;
77362;SDS011;66428;47.322;9.432;2024-02-21T08:06:56;7.85;;;3.80;;
77362;SDS011;66428;47.322;9.432;2024-02-21T08:09:27;6.40;;;2.92;;
77362;SDS011;66428;47.322;9.432;2024-02-21T08:11:55;7.63;;;2.40;;
77362;SDS011;66428;47.322;9.432;2024-02-21T08:14:25;5.60;;;2.63;;
77362;SDS011;66428;47.322;9.432;2024-02-21T08:16:53;5.00;;;2.38;;
77362;SDS011;66428;47.322;9.432;2024-02-21T08:19:21;4.85;;;2.40;;
77362;SDS011;66428;47.322;9.432;2024-02-21T08:21:49;5.35;;;2.70;;
77362;SDS011;66428;47.322;9.432;2024-02-21T08:24:19;5.28;;;2.45;;
77362;SDS011;66428;47.322;9.432;2024-02-21T08:26:51;3.13;;;1.73;;
77362;SDS011;66428;47.322;9.432;2024-02-21T08:29:19;4.03;;;2.22;;
77362;SDS011;66428;47.322;9.432;2024-02-21T08:31:48;6.85;;;2.22;;
77362;SDS011;66428;47.322;9.432;2024-02-21T08:34:15;2.25;;;1.30;;
77362;SDS011;66428;47.322;9.432;2024-02-21T08:36:44;2.85;;;1.50;;
77362;SDS011;66428;47.322;9.432;2024-02-21T08:39:12;3.28;;;1.50;;
77362;SDS011;66428;47.322;9.432;2024-02-21T08:41:44;2.75;;;1.50;;
77362;SDS011;66428;47.322;9.432;2024-02-21T08:44:22;6.22;;;2.60;;
77362;SDS011;66428;47.322;9.432;2024-02-21T08:46:53;4.85;;;1.83;;
77362;SDS011;66428;47.322;9.432;2024-02-21T08:49:21;3.33;;;1.52;;
77362;SDS011;66428;47.322;9.432;2024-02-21T08:51:49;5.18;;;1.70;;
77362;SDS011;66428;47.322;9.432;2024-02-21T08:54:17;4.28;;;2.15;;
77362;SDS011;66428;47.322;9.432;2024-02-21T08:56:46;5.03;;;1.85;;
77362;SDS011;66428;47.322;9.432;2024-02-21T08:59:13;2.83;;;1.50;;
77362;SDS011;66428;47.322;9.432;2024-02-21T09:01:44;4.60;;;2.47;;
77362;SDS011;66428;47.322;9.432;2024-02-21T09:04:12;6.00;;;2.97;;
77362;SDS011;66428;47.322;9.432;2024-02-21T09:06:40;4.55;;;2.53;;
77362;SDS011;66428;47.322;9.432;2024-02-21T09:09:12;5.03;;;2.35;;
77362;SDS011;66428;47.322;9.432;2024-02-21T09:11:40;5.90;;;3.05;;
77362;SDS011;66428;47.322;9.432;2024-02-21T09:14:09;5.13;;;2.17;;
77362;SDS011;66428;47.322;9.432;2024-02-21T09:16:39;4.38;;;2.03;;
77362;SDS011;66428;47.322;9.432;2024-02-21T09:19:07;4.22;;;2.08;;
77362;SDS011;66428;47.322;9.432;2024-02-21T09:21:40;3.72;;;2.00;;
77362;SDS011;66428;47.322;9.432;2024-02-21T09:24:07;4.00;;;2.08;;
77362;SDS011;66428;47.322;9.432;2024-02-21T09:26:35;4.25;;;1.85;;
77362;SDS011;66428;47.322;9.432;2024-02-21T09:29:03;4.63;;;1.63;;
77362;SDS011;66428;47.322;9.432;2024-02-21T09:31:32;3.17;;;2.30;;
77362;SDS011;66428;47.322;9.432;2024-02-21T09:34:00;4.88;;;1.95;;
77362;SDS011;66428;47.322;9.432;2024-02-21T09:36:31;3.95;;;2.17;;
77362;SDS011;66428;47.322;9.432;2024-02-21T09:38:59;3.97;;;1.90;;
77362;SDS011;66428;47.322;9.432;2024-02-21T09:41:26;3.30;;;1.60;;
77362;SDS011;66428;47.322;9.432;2024-02-21T09:43:54;5.22;;;2.30;;
77362;SDS011;66428;47.322;9.432;2024-02-21T09:46:24;2.35;;;1.58;;
77362;SDS011;66428;47.322;9.432;2024-02-21T09:49:02;4.03;;;1.58;;
77362;SDS011;66428;47.322;9.432;2024-02-21T09:51:32;3.10;;;1.60;;
77362;SDS011;66428;47.322;9.432;2024-02-21T09:54:04;3.35;;;1.67;;
77362;SDS011;66428;47.322;9.432;2024-02-21T09:56:45;3.13;;;1.58;;
77362;SDS011;66428;47.322;9.432;2024-02-21T09:59:12;4.53;;;1.58;;
77362;SDS011;66428;47.322;9.432;2024-02-21T10:01:41;4.95;;;1.58;;
77362;SDS011;66428;47.322;9.432;2024-02-21T10:04:11;4.15;;;1.30;;
77362;SDS011;66428;47.322;9.432;2024-02-21T10:06:41;4.03;;;1.80;;
77362;SDS011;66428;47.322;9.432;2024-02-21T10:09:19;5.35;;;1.70;;
77362;SDS011;66428;47.322;9.432;2024-02-21T10:11:47;8.05;;;2.28;;
77362;SDS011;66428;47.322;9.432;2024-02-21T10:14:15;6.72;;;1.85;;
77362;SDS011;66428;47.322;9.432;2024-02-21T10:16:43;4.00;;;1.75;;
77362;SDS011;66428;47.322;9.432;2024-02-21T10:19:19;7.03;;;2.28;;
77362;SDS011;66428;47.322;9.432;2024-02-21T10:21:59;6.45;;;1.95;;
77362;SDS011;66428;47.322;9.432;2024-02-21T10:24:27;5.45;;;2.03;;
77362;SDS011;66428;47.322;9.432;2024-02-21T10:26:59;3.75;;;1.90;;
77362;SDS011;66428;47.322;9.432;2024-02-21T10:29:26;4.28;;;1.40;;
77362;SDS011;66428;47.322;9.432;2024-02-21T10:32:04;2.28;;;1.10;;
77362;SDS011;66428;47.322;9.432;2024-02-21T10:34:33;1.08;;;0.82;;
77362;SDS011;66428;47.322;9.432;2024-02-21T10:37:02;1.23;;;0.77;;
77362;SDS011;66428;47.322;9.432;2024-02-21T10:39:30;1.65;;;0.85;;
77362;SDS011;66428;47.322;9.432;2024-02-21T10:42:02;1.15;;;0.52;;
77362;SDS011;66428;47.322;9.432;2024-02-21T10:44:35;1.35;;;1.08;;
77362;SDS011;66428;47.322;9.432;2024-02-21T10:47:05;3.80;;;1.00;;
77362;SDS011;66428;47.322;9.432;2024-02-21T10:49:36;3.20;;;1.13;;
77362;SDS011;66428;47.322;9.432;2024-02-21T10:52:06;2.13;;;1.10;;
77362;SDS011;66428;47.322;9.432;2024-02-21T10:54:39;2.60;;;1.05;;
77362;SDS011;66428;47.322;9.432;2024-02-21T10:57:11;1.50;;;0.90;;
77362;SDS011;66428;47.322;9.432;2024-02-21T10:59:40;1.85;;;1.00;;
77362;SDS011;66428;47.322;9.432;2024-02-21T11:02:07;1.80;;;0.82;;
77362;SDS011;66428;47.322;9.432;2024-02-21T11:04:37;2.60;;;0.90;;
77362;SDS011;66428;47.322;9.432;2024-02-21T11:07:05;1.70;;;0.98;;
77362;SDS011;66428;47.322;9.432;2024-02-21T11:09:39;3.67;;;1.20;;
77362;SDS011;66428;47.322;9.432;2024-02-21T11:12:09;2.60;;;1.27;;
77362;SDS011;66428;47.322;9.432;2024-02-21T11:14:38;1.90;;;0.80;;
77362;SDS011;66428;47.322;9.432;2024-02-21T11:19:39;1.85;;;1.10;;
77362;SDS011;66428;47.322;9.432;2024-02-21T11:22:14;2.40;;;1.17;;
77362;SDS011;66428;47.322;9.432;2024-02-21T11:24:43;1.58;;;0.85;;
77362;SDS011;66428;47.322;9.432;2024-02-21T11:27:14;1.23;;;0.80;;
77362;SDS011;66428;47.322;9.432;2024-02-21T11:29:46;1.23;;;0.90;;
77362;SDS011;66428;47.322;9.432;2024-02-21T11:32:14;1.98;;;0.90;;
77362;SDS011;66428;47.322;9.432;2024-02-21T11:34:54;2.17;;;1.00;;
77362;SDS011;66428;47.322;9.432;2024-02-21T11:37:23;1.63;;;0.90;;
77362;SDS011;66428;47.322;9.432;2024-02-21T11:39:52;3.72;;;1.23;;
77362;SDS011;66428;47.322;9.432;2024-02-21T11:42:20;1.90;;;1.20;;
77362;SDS011;66428;47.322;9.432;2024-02-21T11:44:51;2.92;;;1.27;;
77362;SDS011;66428;47.322;9.432;2024-02-21T11:47:21;2.22;;;1.17;;
77362;SDS011;66428;47.322;9.432;2024-02-21T11:49:49;2.05;;;1.23;;
77362;SDS011;66428;47.322;9.432;2024-02-21T11:52:22;2.47;;;1.38;;
77362;SDS011;66428;47.322;9.432;2024-02-21T11:54:52;2.00;;;1.02;;
77362;SDS011;66428;47.322;9.432;2024-02-21T11:57:21;1.80;;;1.10;;
77362;SDS011;66428;47.322;9.432;2024-02-21T11:59:48;3.10;;;1.23;;
77362;SDS011;66428;47.322;9.432;2024-02-21T12:02:28;2.72;;;0.98;;
77362;SDS011;66428;47.322;9.432;2024-02-21T12:04:56;1.85;;;1.13;;
77362;SDS011;66428;47.322;9.432;2024-02-21T12:07:25;2.60;;;1.33;;
77362;SDS011;66428;47.322;9.432;2024-02-21T12:09:58;2.28;;;1.02;;
77362;SDS011;66428;47.322;9.432;2024-02-21T12:12:26;2.10;;;1.10;;
77362;SDS011;66428;47.322;9.432;2024-02-21T12:14:55;1.70;;;1.13;;
77362;SDS011;66428;47.322;9.432;2024-02-21T12:17:26;3.50;;;1.27;;
77362;SDS011;66428;47.322;9.432;2024-02-21T12:19:54;2.88;;;1.15;;
77362;SDS011;66428;47.322;9.432;2024-02-21T12:22:26;1.65;;;0.82;;
77362;SDS011;66428;47.322;9.432;2024-02-21T12:24:54;3.45;;;1.23;;
77362;SDS011;66428;47.322;9.432;2024-02-21T12:27:22;3.28;;;1.17;;
77362;SDS011;66428;47.322;9.432;2024-02-21T12:29:50;3.45;;;1.63;;
77362;SDS011;66428;47.322;9.432;2024-02-21T12:32:20;2.55;;;1.30;;
77362;SDS011;66428;47.322;9.432;2024-02-21T12:34:50;3.00;;;1.15;;
77362;SDS011;66428;47.322;9.432;2024-02-21T12:37:21;2.85;;;1.40;;
77362;SDS011;66428;47.322;9.432;2024-02-21T12:39:53;2.10;;;1.02;;
77362;SDS011;66428;47.322;9.432;2024-02-21T12:42:20;1.88;;;1.10;;
77362;SDS011;66428;47.322;9.432;2024-02-21T12:44:50;2.40;;;1.13;;
77362;SDS011;66428;47.322;9.432;2024-02-21T12:47:20;2.05;;;1.08;;
77362;SDS011;66428;47.322;9.432;2024-02-21T12:49:50;3.35;;;1.05;;
77362;SDS011;66428;47.322;9.432;2024-02-21T12:52:18;4.78;;;1.50;;
77362;SDS011;66428;47.322;9.432;2024-02-21T12:54:45;2.78;;;1.58;;
77362;SDS011;66428;47.322;9.432;2024-02-21T12:57:15;5.05;;;1.98;;
77362;SDS011;66428;47.322;9.432;2024-02-21T12:59:43;2.58;;;1.30;;
77362;SDS011;66428;47.322;9.432;2024-02-21T13:02:10;2.55;;;1.40;;
77362;SDS011;66428;47.322;9.432;2024-02-21T13:04:40;3.70;;;1.70;;
77362;SDS011;66428;47.322;9.432;2024-02-21T13:07:08;1.95;;;1.38;;
77362;SDS011;66428;47.322;9.432;2024-02-21T13:09:36;3.53;;;1.63;;
77362;SDS011;66428;47.322;9.432;2024-02-21T13:12:06;2.33;;;1.38;;
77362;SDS011;66428;47.322;9.432;2024-02-21T13:14:36;2.05;;;1.15;;
77362;SDS011;66428;47.322;9.432;2024-02-21T13:17:05;3.80;;;1.70;;
77362;SDS011;66428;47.322;9.432;2024-02-21T13:19:33;2.53;;;1.38;;
77362;SDS011;66428;47.322;9.432;2024-02-21T13:22:01;4.53;;;1.52;;
77362;SDS011;66428;47.322;9.432;2024-02-21T13:24:32;2.45;;;1.50;;
77362;SDS011;66428;47.322;9.432;2024-02-21T13:27:02;2.30;;;1.40;;
77362;SDS011;66428;47.322;9.432;2024-02-21T13:29:30;4.22;;;2.05;;
77362;SDS011;66428;47.322;9.432;2024-02-21T13:32:02;2.00;;;1.17;;
77362;SDS011;66428;47.322;9.432;2024-02-21T13:34:29;2.72;;;1.45;;
77362;SDS011;66428;47.322;9.432;2024-02-21T13:36:57;2.25;;;1.30;;
77362;SDS011;66428;47.322;9.432;2024-02-21T13:39:26;2.67;;;1.42;;
77362;SDS011;66428;47.322;9.432;2024-02-21T13:41:56;6.00;;;1.88;;
77362;SDS011;66428;47.322;9.432;2024-02-21T13:44:27;5.00;;;1.65;;
77362;SDS011;66428;47.322;9.432;2024-02-21T13:46:55;3.15;;;1.55;;
77362;SDS011;66428;47.322;9.432;2024-02-21T13:49:24;2.22;;;1.42;;
77362;SDS011;66428;47.322;9.432;2024-02-21T13:51:52;2.60;;;1.83;;
77362;SDS011;66428;47.322;9.432;2024-02-21T13:54:20;4.55;;;1.95;;
77362;SDS011;66428;47.322;9.432;2024-02-21T13:56:47;4.07;;;1.77;;
77362;SDS011;66428;47.322;9.432;2024-02-21T13:59:15;3.15;;;1.92;;
77362;SDS011;66428;47.322;9.432;2024-02-21T14:01:44;4.50;;;1.77;;
77362;SDS011;66428;47.322;9.432;2024-02-21T14:04:11;3.70;;;2.05;;
77362;SDS011;66428;47.322;9.432;2024-02-21T14:06:43;3.47;;;2.20;;
77362;SDS011;66428;47.322;9.432;2024-02-21T14:09:11;4.50;;;1.73;;
77362;SDS011;66428;47.322;9.432;2024-02-21T14:11:38;5.80;;;2.03;;
77362;SDS011;66428;47.322;9.432;2024-02-21T14:14:08;2.85;;;2.05;;
77362;SDS011;66428;47.322;9.432;2024-02-21T14:16:36;4.68;;;1.98;;
77362;SDS011;66428;47.322;9.432;2024-02-21T14:19:04;4.70;;;1.70;;
77362;SDS011;66428;47.322;9.432;2024-02-21T14:21:33;3.80;;;1.73;;
77362;SDS011;66428;47.322;9.432;2024-02-21T14:24:05;5.07;;;1.90;;
77362;SDS011;66428;47.322;9.432;2024-02-21T14:26:33;4.63;;;2.15;;
77362;SDS011;66428;47.322;9.432;2024-02-21T14:29:02;4.38;;;1.88;;
77362;SDS011;66428;47.322;9.432;2024-02-21T14:31:32;2.55;;;1.60;;
77362;SDS011;66428;47.322;9.432;2024-02-21T14:34:03;3.33;;;1.90;;
77362;SDS011;66428;47.322;9.432;2024-02-21T14:36:31;3.08;;;1.92;;
77362;SDS011;66428;47.322;9.432;2024-02-21T14:39:01;3.92;;;1.70;;
77362;SDS011;66428;47.322;9.432;2024-02-21T14:41:32;3.47;;;2.15;;
77362;SDS011;66428;47.322;9.432;2024-02-21T14:44:01;3.92;;;1.75;;
77362;SDS011;66428;47.322;9.432;2024-02-21T14:46:33;2.65;;;1.65;;
77362;SDS011;66428;47.322;9.432;2024-02-21T14:49:01;2.53;;;1.50;;
77362;SDS011;66428;47.322;9.432;2024-02-21T14:51:29;3.45;;;2.00;;
77362;SDS011;66428;47.322;9.432;2024-02-21T14:54:00;4.18;;;1.77;;
77362;SDS011;66428;47.322;9.432;2024-02-21T14:56:27;3.45;;;1.95;;
77362;SDS011;66428;47.322;9.432;2024-02-21T14:58:57;4.35;;;1.92;;
77362;SDS011;66428;47.322;9.432;2024-02-21T15:01:36;3.78;;;2.10;;